sensor_id;sensor_type;location;lat;lon;timestamp;pressure;altitude;pressure_sealevel;temperature;humidity
35704;BME280;21820;51.112;13.762;2023-09-19T00:01:54;98701.75;;;23.50;62.49
35704;BME280;21820;51.112;13.762;2023-09-19T00:04:22;98701.38;;;23.53;61.87
35704;BME280;21820;51.112;13.762;2023-09-19T00:06:54;98700.56;;;23.52;62.18
35704;BME280;21820;51.112;13.762;2023-09-19T00:09:19;98682.25;;;23.44;62.43
35704;BME280;21820;51.112;13.762;2023-09-19T00:11:44;98698.59;;;23.54;62.11
35704;BME280;21820;51.112;13.762;2023-09-19T00:14:12;98693.34;;;23.54;62.09
35704;BME280;21820;51.112;13.762;2023-09-19T00:16:39;98702.22;;;23.53;62.42
35704;BME280;21820;51.112;13.762;2023-09-19T00:19:06;98699.94;;;23.50;62.10
35704;BME280;21820;51.112;13.762;2023-09-19T00:21:34;98712.41;;;23.48;61.70
35704;BME280;21820;51.112;13.762;2023-09-19T00:24:00;98690.78;;;23.46;63.40
35704;BME280;21820;51.112;13.762;2023-09-19T00:26:26;98689.94;;;23.46;62.03
35704;BME280;21820;51.112;13.762;2023-09-19T00:28:54;98691.78;;;23.45;62.45
35704;BME280;21820;51.112;13.762;2023-09-19T00:31:20;98685.88;;;23.43;61.97
35704;BME280;21820;51.112;13.762;2023-09-19T00:33:50;98684.22;;;23.42;61.93
35704;BME280;21820;51.112;13.762;2023-09-19T00:36:16;98681.09;;;23.47;61.77
35704;BME280;21820;51.112;13.762;2023-09-19T00:38:43;98688.81;;;23.48;61.46
35704;BME280;21820;51.112;13.762;2023-09-19T00:41:10;98690.78;;;23.46;61.43
35704;BME280;21820;51.112;13.762;2023-09-19T00:43:38;98685.34;;;23.48;61.33
35704;BME280;21820;51.112;13.762;2023-09-19T00:46:03;98674.22;;;23.46;61.29
35704;BME280;21820;51.112;13.762;2023-09-19T00:48:31;98677.66;;;23.46;61.98
35704;BME280;21820;51.112;13.762;2023-09-19T00:50:59;98670.13;;;23.43;63.01
35704;BME280;21820;51.112;13.762;2023-09-19T00:53:27;98678.66;;;23.45;62.63
35704;BME280;21820;51.112;13.762;2023-09-19T00:55:52;98676.03;;;23.45;61.33
35704;BME280;21820;51.112;13.762;2023-09-19T00:58:18;98670.13;;;23.43;62.10
35704;BME280;21820;51.112;13.762;2023-09-19T01:00:44;98655.44;;;23.34;62.60
35704;BME280;21820;51.112;13.762;2023-09-19T01:03:10;98676.03;;;23.45;62.02
35704;BME280;21820;51.112;13.762;2023-09-19T01:05:36;98671.75;;;23.44;62.11
35704;BME280;21820;51.112;13.762;2023-09-19T01:08:01;98683.56;;;23.48;61.78
35704;BME280;21820;51.112;13.762;2023-09-19T01:10:27;98676.66;;;23.47;62.18
35704;BME280;21820;51.112;13.762;2023-09-19T01:12:54;98678.66;;;23.45;61.81
35704;BME280;21820;51.112;13.762;2023-09-19T01:18:02;98683.91;;;23.45;63.13
35704;BME280;21820;51.112;13.762;2023-09-19T01:21:00;98684.53;;;23.47;63.74
35704;BME280;21820;51.112;13.762;2023-09-19T01:24:34;98668.53;;;23.34;63.26
35704;BME280;21820;51.112;13.762;2023-09-19T01:29:33;98691.91;;;23.44;63.00
35704;BME280;21820;51.112;13.762;2023-09-19T01:32:04;98701.63;;;23.43;62.10
35704;BME280;21820;51.112;13.762;2023-09-19T01:34:55;98705.69;;;23.46;63.54
35704;BME280;21820;51.112;13.762;2023-09-19T01:37:29;98704.06;;;23.45;61.57
35704;BME280;21820;51.112;13.762;2023-09-19T01:39:59;98692.75;;;23.44;61.46
35704;BME280;21820;51.112;13.762;2023-09-19T01:45:48;98691.13;;;23.43;63.79
35704;BME280;21820;51.112;13.762;2023-09-19T01:51:42;98692.75;;;23.44;63.68
35704;BME280;21820;51.112;13.762;2023-09-19T01:54:12;98692.75;;;23.44;61.69
35704;BME280;21820;51.112;13.762;2023-09-19T01:56:40;98697.31;;;23.50;63.38
35704;BME280;21820;51.112;13.762;2023-09-19T01:59:11;98695.38;;;23.44;62.17
35704;BME280;21820;51.112;13.762;2023-09-19T02:01:39;98696.38;;;23.43;61.60
35704;BME280;21820;51.112;13.762;2023-09-19T02:04:05;98678.38;;;23.32;61.62
35704;BME280;21820;51.112;13.762;2023-09-19T02:06:31;98700.78;;;23.43;61.53
35704;BME280;21820;51.112;13.762;2023-09-19T02:08:57;98706.03;;;23.43;61.32
35704;BME280;21820;51.112;13.762;2023-09-19T02:11:22;98703.25;;;23.44;61.41
35704;BME280;21820;51.112;13.762;2023-09-19T02:13:48;98708.50;;;23.44;61.89
35704;BME280;21820;51.112;13.762;2023-09-19T02:16:16;98705.88;;;23.44;62.20
35704;BME280;21820;51.112;13.762;2023-09-19T02:18:42;98705.22;;;23.42;61.88
35704;BME280;21820;51.112;13.762;2023-09-19T02:21:07;98720.16;;;23.42;61.48
35704;BME280;21820;51.112;13.762;2023-09-19T02:23:35;98710.47;;;23.42;61.06
35704;BME280;21820;51.112;13.762;2023-09-19T02:26:01;98705.78;;;23.30;61.35
35704;BME280;21820;51.112;13.762;2023-09-19T02:28:26;98712.47;;;23.40;62.29
35704;BME280;21820;51.112;13.762;2023-09-19T02:30:58;98708.84;;;23.41;61.97
35704;BME280;21820;51.112;13.762;2023-09-19T02:33:24;98720.94;;;23.42;61.70
35704;BME280;21820;51.112;13.762;2023-09-19T02:35:49;98722.59;;;23.43;61.82
35704;BME280;21820;51.112;13.762;2023-09-19T02:38:15;98713.72;;;23.44;62.08
35704;BME280;21820;51.112;13.762;2023-09-19T02:40:46;98701.38;;;23.30;61.75
35704;BME280;21820;51.112;13.762;2023-09-19T02:43:11;98726.19;;;23.42;62.73
35704;BME280;21820;51.112;13.762;2023-09-19T02:45:37;98737.53;;;23.43;61.68
35704;BME280;21820;51.112;13.762;2023-09-19T02:48:02;98732.28;;;23.43;61.96
35704;BME280;21820;51.112;13.762;2023-09-19T02:50:28;98734.06;;;23.42;61.72
35704;BME280;21820;51.112;13.762;2023-09-19T02:52:53;98731.31;;;23.36;61.44
35704;BME280;21820;51.112;13.762;2023-09-19T02:55:19;98741.94;;;23.42;61.29
35704;BME280;21820;51.112;13.762;2023-09-19T02:57:48;98746.22;;;23.43;61.52
35704;BME280;21820;51.112;13.762;2023-09-19T03:00:14;98747.19;;;23.42;61.84
35704;BME280;21820;51.112;13.762;2023-09-19T03:02:40;98752.44;;;23.42;62.53
35704;BME280;21820;51.112;13.762;2023-09-19T03:05:07;98743.59;;;23.43;61.38
35704;BME280;21820;51.112;13.762;2023-09-19T03:07:33;98747.19;;;23.42;62.07
35704;BME280;21820;51.112;13.762;2023-09-19T03:09:59;98752.78;;;23.39;61.77
35704;BME280;21820;51.112;13.762;2023-09-19T03:12:25;98757.38;;;23.37;61.17
35704;BME280;21820;51.112;13.762;2023-09-19T03:14:51;98753.59;;;23.40;61.48
35704;BME280;21820;51.112;13.762;2023-09-19T03:17:16;98759.84;;;23.39;62.09
35704;BME280;21820;51.112;13.762;2023-09-19T03:19:42;98764.28;;;23.38;62.11
35704;BME280;21820;51.112;13.762;2023-09-19T03:22:07;98767.72;;;23.39;61.32
35704;BME280;21820;51.112;13.762;2023-09-19T03:24:33;98772.16;;;23.38;61.90
35704;BME280;21820;51.112;13.762;2023-09-19T03:26:59;98773.78;;;23.39;61.76
35704;BME280;21820;51.112;13.762;2023-09-19T03:29:24;98780.00;;;23.38;61.38
35704;BME280;21820;51.112;13.762;2023-09-19T03:31:50;98776.38;;;23.39;61.83
35704;BME280;21820;51.112;13.762;2023-09-19T03:34:16;98757.72;;;23.26;61.93
35704;BME280;21820;51.112;13.762;2023-09-19T03:36:42;98774.94;;;23.37;61.77
35704;BME280;21820;51.112;13.762;2023-09-19T03:39:07;98774.47;;;23.33;61.14
35704;BME280;21820;51.112;13.762;2023-09-19T03:41:33;98783.59;;;23.37;60.78
35704;BME280;21820;51.112;13.762;2023-09-19T03:44:01;98757.72;;;23.26;61.56
35704;BME280;21820;51.112;13.762;2023-09-19T03:46:27;98783.28;;;23.40;60.77
35704;BME280;21820;51.112;13.762;2023-09-19T03:48:53;98779.84;;;23.40;61.29
35704;BME280;21820;51.112;13.762;2023-09-19T03:51:19;98766.56;;;23.41;61.75
35704;BME280;21820;51.112;13.762;2023-09-19T03:53:45;98773.78;;;23.39;61.71
35704;BME280;21820;51.112;13.762;2023-09-19T03:56:10;98781.63;;;23.39;61.48
35704;BME280;21820;51.112;13.762;2023-09-19T03:58:36;98778.53;;;23.36;61.69
35704;BME280;21820;51.112;13.762;2023-09-19T04:01:04;98793.13;;;23.38;60.99
35704;BME280;21820;51.112;13.762;2023-09-19T04:03:32;98781.81;;;23.38;60.79
35704;BME280;21820;51.112;13.762;2023-09-19T04:06:12;98782.63;;;23.38;61.82
35704;BME280;21820;51.112;13.762;2023-09-19T04:08:37;98781.16;;;23.36;61.34
35704;BME280;21820;51.112;13.762;2023-09-19T04:11:02;98791.47;;;23.37;61.63
35704;BME280;21820;51.112;13.762;2023-09-19T04:13:28;98794.28;;;23.36;61.52
35704;BME280;21820;51.112;13.762;2023-09-19T04:15:53;98780.69;;;23.24;61.47
35704;BME280;21820;51.112;13.762;2023-09-19T04:18:19;98796.72;;;23.37;61.75
35704;BME280;21820;51.112;13.762;2023-09-19T04:20:49;98784.25;;;23.39;61.30
35704;BME280;21820;51.112;13.762;2023-09-19T04:23:15;98793.97;;;23.39;60.82
35704;BME280;21820;51.112;13.762;2023-09-19T04:25:41;98789.50;;;23.39;61.19
35704;BME280;21820;51.112;13.762;2023-09-19T04:28:06;98794.75;;;23.39;61.27
35704;BME280;21820;51.112;13.762;2023-09-19T04:30:32;98800.81;;;23.40;61.43
35704;BME280;21820;51.112;13.762;2023-09-19T04:32:57;98802.97;;;23.36;60.74
35704;BME280;21820;51.112;13.762;2023-09-19T04:35:22;98799.34;;;23.37;60.59
35704;BME280;21820;51.112;13.762;2023-09-19T04:37:48;98797.53;;;23.38;61.15
35704;BME280;21820;51.112;13.762;2023-09-19T04:40:13;98804.59;;;23.37;60.52
35704;BME280;21820;51.112;13.762;2023-09-19T04:42:45;98810.84;;;23.36;60.50
35704;BME280;21820;51.112;13.762;2023-09-19T04:45:11;98804.44;;;23.39;60.64
35704;BME280;21820;51.112;13.762;2023-09-19T04:47:37;98792.94;;;23.40;61.07
35704;BME280;21820;51.112;13.762;2023-09-19T04:50:08;98804.59;;;23.37;61.85
35704;BME280;21820;51.112;13.762;2023-09-19T04:52:40;98792.81;;;23.25;60.28
35704;BME280;21820;51.112;13.762;2023-09-19T04:55:11;98820.31;;;23.37;60.29
35704;BME280;21820;51.112;13.762;2023-09-19T04:57:41;98823.28;;;23.34;60.48
35704;BME280;21820;51.112;13.762;2023-09-19T05:00:07;98817.25;;;23.34;61.46
35704;BME280;21820;51.112;13.762;2023-09-19T05:02:37;98822.50;;;23.34;60.79
35704;BME280;21820;51.112;13.762;2023-09-19T05:05:03;98825.13;;;23.34;60.74
35704;BME280;21820;51.112;13.762;2023-09-19T05:07:30;98827.75;;;23.34;60.37
35704;BME280;21820;51.112;13.762;2023-09-19T05:09:55;98828.88;;;23.31;60.63
35704;BME280;21820;51.112;13.762;2023-09-19T05:12:20;98815.78;;;23.23;60.99
35704;BME280;21820;51.112;13.762;2023-09-19T05:14:46;98831.47;;;23.39;60.26
35704;BME280;21820;51.112;13.762;2023-09-19T05:17:11;98834.09;;;23.39;59.85
35704;BME280;21820;51.112;13.762;2023-09-19T05:19:36;98835.59;;;23.42;59.97
35704;BME280;21820;51.112;13.762;2023-09-19T05:22:03;98834.09;;;23.39;59.81
35704;BME280;21820;51.112;13.762;2023-09-19T05:24:29;98840.81;;;23.42;60.00
35704;BME280;21820;51.112;13.762;2023-09-19T05:26:56;98841.63;;;23.42;60.26
35704;BME280;21820;51.112;13.762;2023-09-19T05:29:22;98848.88;;;23.40;60.20
35704;BME280;21820;51.112;13.762;2023-09-19T05:31:48;98845.25;;;23.41;61.06
35704;BME280;21820;51.112;13.762;2023-09-19T05:34:15;98841.78;;;23.41;59.39
35704;BME280;21820;51.112;13.762;2023-09-19T05:36:40;98850.50;;;23.41;59.92
35704;BME280;21820;51.112;13.762;2023-09-19T05:39:05;98847.69;;;23.43;59.40
35704;BME280;21820;51.112;13.762;2023-09-19T05:41:34;98830.84;;;23.29;59.99
35704;BME280;21820;51.112;13.762;2023-09-19T05:44:02;98860.16;;;23.41;59.99
35704;BME280;21820;51.112;13.762;2023-09-19T05:46:27;98840.03;;;23.25;60.06
35704;BME280;21820;51.112;13.762;2023-09-19T05:48:55;98875.09;;;23.40;59.50
35704;BME280;21820;51.112;13.762;2023-09-19T05:51:22;98875.72;;;23.42;60.71
35704;BME280;21820;51.112;13.762;2023-09-19T05:53:47;98873.09;;;23.42;59.27
35704;BME280;21820;51.112;13.762;2023-09-19T05:56:13;98875.91;;;23.41;59.91
35704;BME280;21820;51.112;13.762;2023-09-19T05:58:40;98873.44;;;23.39;59.77
35704;BME280;21820;51.112;13.762;2023-09-19T06:01:08;98887.22;;;23.41;60.62
35704;BME280;21820;51.112;13.762;2023-09-19T06:03:34;98880.34;;;23.40;60.21
35704;BME280;21820;51.112;13.762;2023-09-19T06:06:03;98877.06;;;23.38;60.03
35704;BME280;21820;51.112;13.762;2023-09-19T06:08:31;98882.31;;;23.38;59.89
35704;BME280;21820;51.112;13.762;2023-09-19T06:10:57;98883.16;;;23.39;59.65
35704;BME280;21820;51.112;13.762;2023-09-19T06:13:22;98888.22;;;23.40;60.92
35704;BME280;21820;51.112;13.762;2023-09-19T06:15:48;98893.63;;;23.39;60.16
35704;BME280;21820;51.112;13.762;2023-09-19T06:18:14;98899.50;;;23.41;60.20
35704;BME280;21820;51.112;13.762;2023-09-19T06:20:47;98902.97;;;23.41;59.84
35704;BME280;21820;51.112;13.762;2023-09-19T06:23:13;98901.34;;;23.40;59.31
35704;BME280;21820;51.112;13.762;2023-09-19T06:25:39;98898.72;;;23.40;59.47
35704;BME280;21820;51.112;13.762;2023-09-19T06:28:06;98910.16;;;23.39;60.17
35704;BME280;21820;51.112;13.762;2023-09-19T06:30:33;98914.75;;;23.37;59.54
35704;BME280;21820;51.112;13.762;2023-09-19T06:33:00;98908.88;;;23.35;60.60
35704;BME280;21820;51.112;13.762;2023-09-19T06:35:26;98914.75;;;23.37;60.24
35704;BME280;21820;51.112;13.762;2023-09-19T06:37:52;98902.97;;;23.25;59.81
35704;BME280;21820;51.112;13.762;2023-09-19T06:40:18;98927.88;;;23.37;59.96
35704;BME280;21820;51.112;13.762;2023-09-19T06:42:50;98931.16;;;23.39;60.16
35704;BME280;21820;51.112;13.762;2023-09-19T06:45:16;98933.97;;;23.38;59.91
35704;BME280;21820;51.112;13.762;2023-09-19T06:47:45;98945.28;;;23.38;59.34
35704;BME280;21820;51.112;13.762;2023-09-19T06:50:11;98947.91;;;23.38;59.52
35704;BME280;21820;51.112;13.762;2023-09-19T06:52:42;98957.56;;;23.38;61.08
35704;BME280;21820;51.112;13.762;2023-09-19T06:55:08;98957.56;;;23.38;59.85
35704;BME280;21820;51.112;13.762;2023-09-19T06:57:37;98960.19;;;23.38;59.31
35704;BME280;21820;51.112;13.762;2023-09-19T07:00:02;98946.41;;;23.36;60.22
35704;BME280;21820;51.112;13.762;2023-09-19T07:02:34;98955.09;;;23.36;59.52
35704;BME280;21820;51.112;13.762;2023-09-19T07:04:59;98968.72;;;23.40;59.74
35704;BME280;21820;51.112;13.762;2023-09-19T07:07:24;98969.53;;;23.40;60.43
35704;BME280;21820;51.112;13.762;2023-09-19T07:09:50;98975.75;;;23.39;59.74
35704;BME280;21820;51.112;13.762;2023-09-19T07:12:16;98983.63;;;23.39;59.65
35704;BME280;21820;51.112;13.762;2023-09-19T07:14:42;98987.41;;;23.37;59.95
35704;BME280;21820;51.112;13.762;2023-09-19T07:17:07;98990.03;;;23.37;59.08
35704;BME280;21820;51.112;13.762;2023-09-19T07:19:33;98993.31;;;23.39;59.17
35704;BME280;21820;51.112;13.762;2023-09-19T07:21:58;98983.63;;;23.39;59.69
35704;BME280;21820;51.112;13.762;2023-09-19T07:24:24;98989.69;;;23.40;60.05
35704;BME280;21820;51.112;13.762;2023-09-19T07:26:51;98987.41;;;23.37;59.58
35704;BME280;21820;51.112;13.762;2023-09-19T07:29:17;98970.34;;;23.24;59.36
35704;BME280;21820;51.112;13.762;2023-09-19T07:31:42;98984.97;;;23.35;59.71
35704;BME280;21820;51.112;13.762;2023-09-19T07:34:09;98990.84;;;23.37;59.42
35704;BME280;21820;51.112;13.762;2023-09-19T07:36:35;98994.13;;;23.39;59.77
35704;BME280;21820;51.112;13.762;2023-09-19T07:39:03;99005.59;;;23.38;59.20
35704;BME280;21820;51.112;13.762;2023-09-19T07:41:32;98997.09;;;23.28;58.92
35704;BME280;21820;51.112;13.762;2023-09-19T07:43:57;99013.47;;;23.38;59.04
35704;BME280;21820;51.112;13.762;2023-09-19T07:46:23;99015.44;;;23.36;58.76
35704;BME280;21820;51.112;13.762;2023-09-19T07:48:49;99027.56;;;23.37;58.84
35704;BME280;21820;51.112;13.762;2023-09-19T07:51:15;99023.97;;;23.38;58.94
35704;BME280;21820;51.112;13.762;2023-09-19T07:53:41;99013.66;;;23.37;58.06
35704;BME280;21820;51.112;13.762;2023-09-19T07:56:08;99019.06;;;23.35;57.12
35704;BME280;21820;51.112;13.762;2023-09-19T07:58:34;99017.06;;;23.37;58.32
35704;BME280;21820;51.112;13.762;2023-09-19T08:01:07;99031.19;;;23.36;59.18
35704;BME280;21820;51.112;13.762;2023-09-19T08:03:33;99027.09;;;23.34;57.79
35704;BME280;21820;51.112;13.762;2023-09-19T08:06:00;99016.44;;;23.35;57.66
35704;BME280;21820;51.112;13.762;2023-09-19T08:08:26;99028.72;;;23.35;57.36
35704;BME280;21820;51.112;13.762;2023-09-19T08:10:55;99025.44;;;23.33;58.25
35704;BME280;21820;51.112;13.762;2023-09-19T08:13:22;99025.59;;;23.31;57.87
35704;BME280;21820;51.112;13.762;2023-09-19T08:15:48;99029.72;;;23.34;56.95
35704;BME280;21820;51.112;13.762;2023-09-19T08:18:14;99036.44;;;23.36;56.62
35704;BME280;21820;51.112;13.762;2023-09-19T08:20:40;99044.28;;;23.36;56.05
35704;BME280;21820;51.112;13.762;2023-09-19T08:23:08;99040.03;;;23.35;56.64
35704;BME280;21820;51.112;13.762;2023-09-19T08:25:34;99041.00;;;23.34;56.82
35704;BME280;21820;51.112;13.762;2023-09-19T08:28:00;99045.47;;;23.34;56.18
35704;BME280;21820;51.112;13.762;2023-09-19T08:30:33;99049.72;;;23.35;55.35
35704;BME280;21820;51.112;13.762;2023-09-19T08:33:00;99050.84;;;23.32;56.93
35704;BME280;21820;51.112;13.762;2023-09-19T08:35:26;99054.47;;;23.31;57.53
35704;BME280;21820;51.112;13.762;2023-09-19T08:37:52;99061.34;;;23.32;56.06
35704;BME280;21820;51.112;13.762;2023-09-19T08:40:17;99056.09;;;23.32;56.14
35704;BME280;21820;51.112;13.762;2023-09-19T08:42:50;99052.50;;;23.33;58.06
35704;BME280;21820;51.112;13.762;2023-09-19T08:45:17;99053.47;;;23.32;57.34
35704;BME280;21820;51.112;13.762;2023-09-19T08:47:47;99038.03;;;23.21;57.62
35704;BME280;21820;51.112;13.762;2023-09-19T08:50:29;99054.97;;;23.35;58.15
35704;BME280;21820;51.112;13.762;2023-09-19T08:53:00;99036.56;;;23.18;58.47
35704;BME280;21820;51.112;13.762;2023-09-19T08:55:31;99061.00;;;23.27;57.28
35704;BME280;21820;51.112;13.762;2023-09-19T08:58:02;99061.66;;;23.29;57.62
35704;BME280;21820;51.112;13.762;2023-09-19T09:00:28;99056.41;;;23.29;56.03
35704;BME280;21820;51.112;13.762;2023-09-19T09:02:56;99052.84;;;23.30;55.01
35704;BME280;21820;51.112;13.762;2023-09-19T09:05:23;99055.47;;;23.30;56.07
35704;BME280;21820;51.112;13.762;2023-09-19T09:07:50;99033.13;;;23.18;54.77
35704;BME280;21820;51.112;13.762;2023-09-19T09:10:18;99058.88;;;23.31;56.41
35704;BME280;21820;51.112;13.762;2023-09-19T09:12:43;99074.13;;;23.27;55.18
35704;BME280;21820;51.112;13.762;2023-09-19T09:15:10;99077.56;;;23.28;55.28
35704;BME280;21820;51.112;13.762;2023-09-19T09:17:37;99064.59;;;23.18;55.72
35704;BME280;21820;51.112;13.762;2023-09-19T09:20:03;99076.75;;;23.27;55.97
35704;BME280;21820;51.112;13.762;2023-09-19T09:22:33;99059.00;;;23.13;54.60
35704;BME280;21820;51.112;13.762;2023-09-19T09:24:59;99053.75;;;23.21;55.01
35704;BME280;21820;51.112;13.762;2023-09-19T09:27:29;99053.44;;;23.24;55.04
35704;BME280;21820;51.112;13.762;2023-09-19T09:29:54;99068.88;;;23.27;54.13
35704;BME280;21820;51.112;13.762;2023-09-19T09:32:30;99058.38;;;23.27;56.82
35704;BME280;21820;51.112;13.762;2023-09-19T09:35:00;99055.88;;;23.25;55.42
35704;BME280;21820;51.112;13.762;2023-09-19T09:37:26;99061.84;;;23.28;55.00
35704;BME280;21820;51.112;13.762;2023-09-19T09:39:58;99076.75;;;23.27;54.24
35704;BME280;21820;51.112;13.762;2023-09-19T09:42:34;99063.63;;;23.27;56.03
35704;BME280;21820;51.112;13.762;2023-09-19T09:45:23;99066.75;;;23.31;57.54
35704;BME280;21820;51.112;13.762;2023-09-19T09:47:58;99061.00;;;23.27;55.26
35704;BME280;21820;51.112;13.762;2023-09-19T09:50:25;99066.53;;;23.24;57.58
35704;BME280;21820;51.112;13.762;2023-09-19T09:52:55;99067.06;;;23.28;55.64
35704;BME280;21820;51.112;13.762;2023-09-19T09:55:29;99072.31;;;23.28;55.62
35704;BME280;21820;51.112;13.762;2023-09-19T09:58:16;99069.38;;;23.31;56.80
35704;BME280;21820;51.112;13.762;2023-09-19T10:00:56;99076.44;;;23.30;57.29
35704;BME280;21820;51.112;13.762;2023-09-19T10:03:31;99062.81;;;23.27;55.66
35704;BME280;21820;51.112;13.762;2023-09-19T10:05:58;99069.53;;;23.29;54.87
35704;BME280;21820;51.112;13.762;2023-09-19T10:08:23;99069.53;;;23.29;53.77
35704;BME280;21820;51.112;13.762;2023-09-19T10:10:49;99068.22;;;23.25;55.11
35704;BME280;21820;51.112;13.762;2023-09-19T10:13:19;99075.78;;;23.28;54.39
35704;BME280;21820;51.112;13.762;2023-09-19T10:15:51;99085.28;;;23.29;55.53
35704;BME280;21820;51.112;13.762;2023-09-19T10:18:20;99081.03;;;23.28;55.99
35704;BME280;21820;51.112;13.762;2023-09-19T10:20:46;99081.03;;;23.28;53.41
35704;BME280;21820;51.112;13.762;2023-09-19T10:23:13;99079.06;;;23.30;53.31
35704;BME280;21820;51.112;13.762;2023-09-19T10:25:46;99073.81;;;23.30;54.11
35704;BME280;21820;51.112;13.762;2023-09-19T10:28:14;99083.97;;;23.33;56.66
35704;BME280;21820;51.112;13.762;2023-09-19T10:30:44;99075.44;;;23.31;55.66
35704;BME280;21820;51.112;13.762;2023-09-19T10:33:13;99099.06;;;23.31;53.44
35704;BME280;21820;51.112;13.762;2023-09-19T10:35:41;99068.84;;;23.19;53.87
35704;BME280;21820;51.112;13.762;2023-09-19T10:38:09;99089.06;;;23.27;54.91
35704;BME280;21820;51.112;13.762;2023-09-19T10:40:36;99079.38;;;23.27;54.58
35704;BME280;21820;51.112;13.762;2023-09-19T10:43:05;99081.31;;;23.25;53.19
35704;BME280;21820;51.112;13.762;2023-09-19T10:45:33;99076.06;;;23.25;54.13
35704;BME280;21820;51.112;13.762;2023-09-19T10:48:00;99050.66;;;23.17;54.19
35704;BME280;21820;51.112;13.762;2023-09-19T10:50:30;99056.06;;;23.16;55.27
35704;BME280;21820;51.112;13.762;2023-09-19T10:53:00;99084.31;;;23.30;55.23
35704;BME280;21820;51.112;13.762;2023-09-19T10:55:32;99089.56;;;23.30;53.03
35704;BME280;21820;51.112;13.762;2023-09-19T10:58:01;99092.00;;;23.32;54.25
35704;BME280;21820;51.112;13.762;2023-09-19T11:00:29;99076.78;;;23.35;53.79
35704;BME280;21820;51.112;13.762;2023-09-19T11:05:38;99067.56;;;23.31;53.97
35704;BME280;21820;51.112;13.762;2023-09-19T11:08:07;99069.19;;;23.32;53.08
35704;BME280;21820;51.112;13.762;2023-09-19T11:10:48;99064.94;;;23.31;56.18
35704;BME280;21820;51.112;13.762;2023-09-19T11:13:24;99075.44;;;23.31;55.60
35704;BME280;21820;51.112;13.762;2023-09-19T11:29:29;99054.63;;;23.30;55.63
35704;BME280;21820;51.112;13.762;2023-09-19T11:31:56;99055.44;;;23.22;52.35
35704;BME280;21820;51.112;13.762;2023-09-19T11:34:45;99078.41;;;23.36;55.73
35704;BME280;21820;51.112;13.762;2023-09-19T11:42:46;99072.31;;;23.36;52.91
35704;BME280;21820;51.112;13.762;2023-09-19T11:48:15;99077.06;;;23.32;54.74
35704;BME280;21820;51.112;13.762;2023-09-19T11:50:44;99075.13;;;23.34;51.97
35704;BME280;21820;51.112;13.762;2023-09-19T11:53:11;99077.41;;;23.37;55.42
35704;BME280;21820;51.112;13.762;2023-09-19T11:55:38;99081.03;;;23.36;51.94
35704;BME280;21820;51.112;13.762;2023-09-19T11:58:06;99079.69;;;23.32;52.62
35704;BME280;21820;51.112;13.762;2023-09-19T12:00:32;99063.94;;;23.24;53.56
35704;BME280;21820;51.112;13.762;2023-09-19T12:03:08;99080.34;;;23.34;55.11
35704;BME280;21820;51.112;13.762;2023-09-19T12:05:34;99067.06;;;23.36;51.80
35704;BME280;21820;51.112;13.762;2023-09-19T12:08:00;99084.81;;;23.34;52.54
35704;BME280;21820;51.112;13.762;2023-09-19T12:10:27;99079.22;;;23.37;52.47
35704;BME280;21820;51.112;13.762;2023-09-19T12:12:52;99082.03;;;23.35;53.30
35704;BME280;21820;51.112;13.762;2023-09-19T12:15:28;99083.66;;;23.36;54.40
35704;BME280;21820;51.112;13.762;2023-09-19T12:17:59;99088.91;;;23.36;52.51
35704;BME280;21820;51.112;13.762;2023-09-19T12:20:39;99074.16;;;23.35;53.17
35704;BME280;21820;51.112;13.762;2023-09-19T12:23:12;99074.78;;;23.37;54.68
35704;BME280;21820;51.112;13.762;2023-09-19T12:25:44;99079.22;;;23.37;54.93
35704;BME280;21820;51.112;13.762;2023-09-19T12:28:14;99075.59;;;23.38;53.39
35704;BME280;21820;51.112;13.762;2023-09-19T12:30:41;99067.91;;;23.36;52.20
35704;BME280;21820;51.112;13.762;2023-09-19T12:33:20;99071.19;;;23.38;55.12
35704;BME280;21820;51.112;13.762;2023-09-19T12:35:46;99053.78;;;23.29;53.00
35704;BME280;21820;51.112;13.762;2023-09-19T12:38:28;99079.56;;;23.42;54.49
35704;BME280;21820;51.112;13.762;2023-09-19T12:40:55;99065.94;;;23.38;53.74
35704;BME280;21820;51.112;13.762;2023-09-19T12:43:22;99074.47;;;23.40;51.73
35704;BME280;21820;51.112;13.762;2023-09-19T12:45:48;99078.91;;;23.40;52.15
35704;BME280;21820;51.112;13.762;2023-09-19T12:48:26;99081.34;;;23.41;54.07
35704;BME280;21820;51.112;13.762;2023-09-19T12:53:35;99078.22;;;23.38;54.83
35704;BME280;21820;51.112;13.762;2023-09-19T12:56:06;99069.53;;;23.37;52.63
35704;BME280;21820;51.112;13.762;2023-09-19T12:58:34;99069.41;;;23.39;52.24
35704;BME280;21820;51.112;13.762;2023-09-19T13:01:00;99067.75;;;23.38;51.55
35704;BME280;21820;51.112;13.762;2023-09-19T13:03:27;99072.81;;;23.39;51.97
35704;BME280;21820;51.112;13.762;2023-09-19T13:06:01;99068.56;;;23.38;52.74
35704;BME280;21820;51.112;13.762;2023-09-19T13:08:37;99075.59;;;23.38;54.18
35704;BME280;21820;51.112;13.762;2023-09-19T13:11:11;99057.88;;;23.23;53.95
35704;BME280;21820;51.112;13.762;2023-09-19T13:16:29;99080.69;;;23.39;51.05
35704;BME280;21820;51.112;13.762;2023-09-19T13:18:54;99070.84;;;23.41;51.29
35704;BME280;21820;51.112;13.762;2023-09-19T13:21:30;99074.47;;;23.40;53.97
35704;BME280;21820;51.112;13.762;2023-09-19T13:24:21;99061.53;;;23.39;54.69
35704;BME280;21820;51.112;13.762;2023-09-19T13:26:48;99067.56;;;23.39;51.42
35704;BME280;21820;51.112;13.762;2023-09-19T13:29:14;99067.56;;;23.39;52.45
35704;BME280;21820;51.112;13.762;2023-09-19T13:31:46;99066.91;;;23.37;52.19
35704;BME280;21820;51.112;13.762;2023-09-19T13:34:11;99062.50;;;23.38;52.12
35704;BME280;21820;51.112;13.762;2023-09-19T13:36:37;99045.56;;;23.24;51.90
35704;BME280;21820;51.112;13.762;2023-09-19T13:39:03;99058.75;;;23.40;51.02